sensor_id;sensor_type;location;lat;lon;timestamp;pressure;altitude;pressure_sealevel;temperature;humidity
24031;BME280;12240;51.142;22.486;2023-02-11T00:01:37;100829.63;;;0.94;100.00
24031;BME280;12240;51.142;22.486;2023-02-11T00:04:06;100831.03;;;1.02;100.00
24031;BME280;12240;51.142;22.486;2023-02-11T00:06:35;100827.72;;;0.97;100.00
24031;BME280;12240;51.142;22.486;2023-02-11T00:09:04;100776.47;;;0.66;100.00
24031;BME280;12240;51.142;22.486;2023-02-11T00:11:33;100810.56;;;0.89;100.00
24031;BME280;12240;51.142;22.486;2023-02-11T00:14:05;100826.81;;;0.98;100.00
24031;BME280;12240;51.142;22.486;2023-02-11T00:16:37;100815.28;;;1.02;100.00
24031;BME280;12240;51.142;22.486;2023-02-11T00:19:05;100805.28;;;0.90;100.00
24031;BME280;12240;51.142;22.486;2023-02-11T00:21:34;100760.59;;;0.70;100.00
24031;BME280;12240;51.142;22.486;2023-02-11T00:24:03;100804.69;;;1.05;100.00
24031;BME280;12240;51.142;22.486;2023-02-11T00:26:34;100797.88;;;1.01;100.00
24031;BME280;12240;51.142;22.486;2023-02-11T00:29:03;100802.94;;;1.06;100.00
24031;BME280;12240;51.142;22.486;2023-02-11T00:31:33;100806.28;;;1.09;100.00
24031;BME280;12240;51.142;22.486;2023-02-11T00:34:04;100795.00;;;1.07;100.00
24031;BME280;12240;51.142;22.486;2023-02-11T00:36:32;100788.06;;;1.06;100.00
24031;BME280;12240;51.142;22.486;2023-02-11T00:39:01;100780.28;;;1.03;100.00
24031;BME280;12240;51.142;22.486;2023-02-11T00:41:29;100767.34;;;0.99;100.00
24031;BME280;12240;51.142;22.486;2023-02-11T00:44:00;100784.75;;;1.01;100.00
24031;BME280;12240;51.142;22.486;2023-02-11T00:46:29;100766.63;;;0.95;100.00
24031;BME280;12240;51.142;22.486;2023-02-11T00:48:59;100790.66;;;1.06;100.00
24031;BME280;12240;51.142;22.486;2023-02-11T00:51:28;100723.03;;;0.70;100.00
24031;BME280;12240;51.142;22.486;2023-02-11T00:53:56;100789.63;;;1.10;100.00
24031;BME280;12240;51.142;22.486;2023-02-11T00:56:25;100735.50;;;0.86;100.00
24031;BME280;12240;51.142;22.486;2023-02-11T00:58:56;100731.31;;;0.81;100.00
24031;BME280;12240;51.142;22.486;2023-02-11T01:01:25;100758.63;;;0.98;100.00
24031;BME280;12240;51.142;22.486;2023-02-11T01:03:54;100698.78;;;0.65;100.00
24031;BME280;12240;51.142;22.486;2023-02-11T01:06:23;100756.19;;;0.94;100.00
24031;BME280;12240;51.142;22.486;2023-02-11T01:08:52;100762.97;;;0.99;100.00
24031;BME280;12240;51.142;22.486;2023-02-11T01:11:21;100771.56;;;1.03;100.00
24031;BME280;12240;51.142;22.486;2023-02-11T01:13:49;100761.84;;;1.05;100.00
24031;BME280;12240;51.142;22.486;2023-02-11T01:16:19;100721.91;;;0.77;100.00
24031;BME280;12240;51.142;22.486;2023-02-11T01:18:48;100760.22;;;1.02;100.00
24031;BME280;12240;51.142;22.486;2023-02-11T01:21:17;100762.03;;;1.00;100.00
24031;BME280;12240;51.142;22.486;2023-02-11T01:23:46;100743.25;;;0.89;100.00
24031;BME280;12240;51.142;22.486;2023-02-11T01:26:15;100626.78;;;0.29;100.00
24031;BME280;12240;51.142;22.486;2023-02-11T01:28:43;100722.22;;;0.91;100.00
24031;BME280;12240;51.142;22.486;2023-02-11T01:31:12;100727.53;;;0.89;100.00
24031;BME280;12240;51.142;22.486;2023-02-11T01:33:41;100737.81;;;0.94;100.00
24031;BME280;12240;51.142;22.486;2023-02-11T01:36:10;100746.25;;;1.02;100.00
24031;BME280;12240;51.142;22.486;2023-02-11T01:38:38;100738.44;;;1.00;100.00
24031;BME280;12240;51.142;22.486;2023-02-11T01:41:11;100736.63;;;1.02;100.00
24031;BME280;12240;51.142;22.486;2023-02-11T01:43:46;100722.03;;;0.95;100.00
24031;BME280;12240;51.142;22.486;2023-02-11T01:46:36;100735.94;;;0.97;100.00
24031;BME280;12240;51.142;22.486;2023-02-11T01:49:15;100681.78;;;0.75;100.00
24031;BME280;12240;51.142;22.486;2023-02-11T01:54:40;100717.47;;;1.00;100.00
24031;BME280;12240;51.142;22.486;2023-02-11T01:57:33;100701.41;;;0.86;100.00
24031;BME280;12240;51.142;22.486;2023-02-11T02:00:23;100700.19;;;0.95;100.00
24031;BME280;12240;51.142;22.486;2023-02-11T02:03:12;100695.75;;;0.97;100.00
24031;BME280;12240;51.142;22.486;2023-02-11T02:06:02;100652.00;;;0.76;100.00
24031;BME280;12240;51.142;22.486;2023-02-11T02:08:46;100691.50;;;0.94;100.00
24031;BME280;12240;51.142;22.486;2023-02-11T02:11:17;100635.13;;;0.61;100.00
24031;BME280;12240;51.142;22.486;2023-02-11T02:13:46;100637.41;;;0.70;100.00
24031;BME280;12240;51.142;22.486;2023-02-11T02:16:18;100675.19;;;0.86;100.00
24031;BME280;12240;51.142;22.486;2023-02-11T02:25:07;100668.88;;;0.69;100.00
24031;BME280;12240;51.142;22.486;2023-02-11T02:36:21;100634.03;;;0.67;100.00
24031;BME280;12240;51.142;22.486;2023-02-11T02:39:02;100626.25;;;0.65;100.00
24031;BME280;12240;51.142;22.486;2023-02-11T02:41:34;100601.34;;;0.54;100.00
24031;BME280;12240;51.142;22.486;2023-02-11T02:44:07;100610.50;;;0.65;100.00
24031;BME280;12240;51.142;22.486;2023-02-11T02:46:36;100610.63;;;0.62;100.00
24031;BME280;12240;51.142;22.486;2023-02-11T02:49:11;100567.75;;;0.42;100.00
24031;BME280;12240;51.142;22.486;2023-02-11T02:52:33;100631.41;;;0.67;100.00
24031;BME280;12240;51.142;22.486;2023-02-11T03:01:07;100646.63;;;0.57;100.00
24031;BME280;12240;51.142;22.486;2023-02-11T03:06:57;100589.47;;;0.45;100.00
24031;BME280;12240;51.142;22.486;2023-02-11T03:09:36;100605.38;;;0.62;100.00
24031;BME280;12240;51.142;22.486;2023-02-11T03:12:08;100556.75;;;0.34;100.00
24031;BME280;12240;51.142;22.486;2023-02-11T03:14:38;100600.25;;;0.59;100.00
24031;BME280;12240;51.142;22.486;2023-02-11T03:17:08;100589.91;;;0.56;100.00
24031;BME280;12240;51.142;22.486;2023-02-11T03:19:40;100560.91;;;0.39;100.00
24031;BME280;12240;51.142;22.486;2023-02-11T03:22:17;100571.63;;;0.55;100.00
24031;BME280;12240;51.142;22.486;2023-02-11T03:24:47;100548.25;;;0.49;100.00
24031;BME280;12240;51.142;22.486;2023-02-11T03:30:10;100524.22;;;0.39;100.00
24031;BME280;12240;51.142;22.486;2023-02-11T03:32:50;100534.19;;;0.51;100.00
24031;BME280;12240;51.142;22.486;2023-02-11T03:35:27;100560.28;;;0.54;100.00
24031;BME280;12240;51.142;22.486;2023-02-11T03:38:26;100567.22;;;0.55;100.00
24031;BME280;12240;51.142;22.486;2023-02-11T03:40:57;100564.91;;;0.48;100.00
24031;BME280;12240;51.142;22.486;2023-02-11T03:43:54;100561.06;;;0.35;100.00
24031;BME280;12240;51.142;22.486;2023-02-11T03:46:32;100549.06;;;0.29;100.00
24031;BME280;12240;51.142;22.486;2023-02-11T03:49:10;100560.91;;;0.39;100.00
24031;BME280;12240;51.142;22.486;2023-02-11T03:51:40;100509.81;;;0.06;100.00
24031;BME280;12240;51.142;22.486;2023-02-11T03:54:13;100503.56;;;0.10;100.00
24031;BME280;12240;51.142;22.486;2023-02-11T03:56:55;100535.78;;;0.34;100.00
24031;BME280;12240;51.142;22.486;2023-02-11T03:59:24;100545.28;;;0.36;100.00
24031;BME280;12240;51.142;22.486;2023-02-11T04:01:52;100527.84;;;0.35;100.00
24031;BME280;12240;51.142;22.486;2023-02-11T04:04:20;100508.84;;;0.30;100.00
24031;BME280;12240;51.142;22.486;2023-02-11T04:06:49;100506.72;;;0.18;100.00
24031;BME280;12240;51.142;22.486;2023-02-11T04:09:17;100497.44;;;0.31;100.00
24031;BME280;12240;51.142;22.486;2023-02-11T04:11:45;100477.63;;;0.26;100.00
24031;BME280;12240;51.142;22.486;2023-02-11T04:14:13;100495.81;;;0.29;100.00
24031;BME280;12240;51.142;22.486;2023-02-11T04:16:41;100494.97;;;0.28;100.00
24031;BME280;12240;51.142;22.486;2023-02-11T04:19:10;100474.69;;;0.12;100.00
24031;BME280;12240;51.142;22.486;2023-02-11T04:21:38;100467.44;;;0.18;100.00
24031;BME280;12240;51.142;22.486;2023-02-11T04:24:07;100473.78;;;0.34;100.00
24031;BME280;12240;51.142;22.486;2023-02-11T04:26:38;100474.13;;;0.25;100.00
24031;BME280;12240;51.142;22.486;2023-02-11T04:29:07;100470.34;;;0.32;100.00
24031;BME280;12240;51.142;22.486;2023-02-11T04:31:35;100478.75;;;0.40;100.00
24031;BME280;12240;51.142;22.486;2023-02-11T04:34:04;100478.69;;;0.42;100.00
24031;BME280;12240;51.142;22.486;2023-02-11T04:36:32;100429.19;;;0.14;100.00
24031;BME280;12240;51.142;22.486;2023-02-11T04:39:00;100485.50;;;0.46;100.00
24031;BME280;12240;51.142;22.486;2023-02-11T04:41:28;100440.47;;;0.36;100.00
24031;BME280;12240;51.142;22.486;2023-02-11T04:43:58;100448.25;;;0.39;100.00
24031;BME280;12240;51.142;22.486;2023-02-11T04:46:27;100399.56;;;0.12;100.00
24031;BME280;12240;51.142;22.486;2023-02-11T04:48:56;100437.81;;;0.38;100.00
24031;BME280;12240;51.142;22.486;2023-02-11T04:51:24;100408.00;;;0.20;100.00
24031;BME280;12240;51.142;22.486;2023-02-11T04:53:52;100423.34;;;0.29;100.00
24031;BME280;12240;51.142;22.486;2023-02-11T04:56:21;100430.00;;;0.36;100.00
24031;BME280;12240;51.142;22.486;2023-02-11T04:58:49;100355.53;;;0.02;100.00
24031;BME280;12240;51.142;22.486;2023-02-11T05:01:17;100410.91;;;0.34;100.00
24031;BME280;12240;51.142;22.486;2023-02-11T05:03:45;100404.72;;;0.35;100.00
24031;BME280;12240;51.142;22.486;2023-02-11T05:06:14;100401.31;;;0.33;100.00
24031;BME280;12240;51.142;22.486;2023-02-11T05:08:42;100348.19;;;0.10;100.00
24031;BME280;12240;51.142;22.486;2023-02-11T05:11:19;100381.28;;;0.32;100.00
24031;BME280;12240;51.142;22.486;2023-02-11T05:13:48;100370.88;;;0.31;100.00
24031;BME280;12240;51.142;22.486;2023-02-11T05:16:17;100378.69;;;0.32;100.00
24031;BME280;12240;51.142;22.486;2023-02-11T05:18:45;100375.13;;;0.33;100.00
24031;BME280;12240;51.142;22.486;2023-02-11T05:21:17;100384.72;;;0.34;100.00
24031;BME280;12240;51.142;22.486;2023-02-11T05:23:45;100327.75;;;-0.03;100.00
24031;BME280;12240;51.142;22.486;2023-02-11T05:26:14;100361.75;;;0.19;100.00
24031;BME280;12240;51.142;22.486;2023-02-11T05:28:43;100368.56;;;0.23;100.00
24031;BME280;12240;51.142;22.486;2023-02-11T05:31:11;100337.72;;;0.10;100.00
24031;BME280;12240;51.142;22.486;2023-02-11T05:33:42;100360.13;;;0.17;100.00
24031;BME280;12240;51.142;22.486;2023-02-11T05:36:12;100353.44;;;0.10;100.00
24031;BME280;12240;51.142;22.486;2023-02-11T05:38:40;100323.91;;;-0.14;100.00
24031;BME280;12240;51.142;22.486;2023-02-11T05:41:10;100310.75;;;-0.34;100.00
24031;BME280;12240;51.142;22.486;2023-02-11T05:43:39;100347.00;;;-0.04;100.00
24031;BME280;12240;51.142;22.486;2023-02-11T05:46:07;100308.78;;;-0.29;100.00
24031;BME280;12240;51.142;22.486;2023-02-11T05:48:35;100349.81;;;-0.08;100.00
24031;BME280;12240;51.142;22.486;2023-02-11T05:51:05;100343.69;;;-0.09;100.00
24031;BME280;12240;51.142;22.486;2023-02-11T05:53:34;100348.25;;;-0.12;100.00
24031;BME280;12240;51.142;22.486;2023-02-11T05:56:02;100345.66;;;-0.14;100.00
24031;BME280;12240;51.142;22.486;2023-02-11T05:58:31;100323.81;;;-0.13;100.00
24031;BME280;12240;51.142;22.486;2023-02-11T06:01:00;100299.91;;;-0.25;100.00
24031;BME280;12240;51.142;22.486;2023-02-11T06:03:29;100275.41;;;-0.44;100.00
24031;BME280;12240;51.142;22.486;2023-02-11T06:05:58;100279.84;;;-0.46;100.00
24031;BME280;12240;51.142;22.486;2023-02-11T06:08:27;100313.53;;;-0.17;100.00
24031;BME280;12240;51.142;22.486;2023-02-11T06:10:55;100305.00;;;-0.22;100.00
24031;BME280;12240;51.142;22.486;2023-02-11T06:13:24;100308.69;;;-0.26;100.00
24031;BME280;12240;51.142;22.486;2023-02-11T06:16:00;100291.66;;;-0.36;100.00
24031;BME280;12240;51.142;22.486;2023-02-11T06:18:29;100290.22;;;-0.43;100.00
24031;BME280;12240;51.142;22.486;2023-02-11T06:20:59;100267.38;;;-0.61;100.00
24031;BME280;12240;51.142;22.486;2023-02-11T06:23:28;100289.47;;;-0.47;100.00
24031;BME280;12240;51.142;22.486;2023-02-11T06:26:03;100272.63;;;-0.40;100.00
24031;BME280;12240;51.142;22.486;2023-02-11T06:28:33;100265.50;;;-0.36;100.00
24031;BME280;12240;51.142;22.486;2023-02-11T06:31:06;100261.81;;;-0.32;100.00
24031;BME280;12240;51.142;22.486;2023-02-11T06:33:35;100259.03;;;-0.28;100.00
24031;BME280;12240;51.142;22.486;2023-02-11T06:36:14;100199.00;;;-0.52;100.00
24031;BME280;12240;51.142;22.486;2023-02-11T06:38:45;100250.47;;;-0.11;100.00
24031;BME280;12240;51.142;22.486;2023-02-11T06:41:16;100253.75;;;-0.06;100.00
24031;BME280;12240;51.142;22.486;2023-02-11T06:43:47;100252.78;;;-0.04;100.00
24031;BME280;12240;51.142;22.486;2023-02-11T06:46:16;100244.19;;;-0.07;100.00
24031;BME280;12240;51.142;22.486;2023-02-11T06:48:44;100252.03;;;-0.07;100.00
24031;BME280;12240;51.142;22.486;2023-02-11T06:51:14;100258.97;;;-0.06;100.00
24031;BME280;12240;51.142;22.486;2023-02-11T06:53:45;100212.16;;;-0.34;100.00
24031;BME280;12240;51.142;22.486;2023-02-11T06:56:22;100256.63;;;-0.12;100.00
24031;BME280;12240;51.142;22.486;2023-02-11T06:58:54;100255.91;;;-0.16;100.00
24031;BME280;12240;51.142;22.486;2023-02-11T07:01:26;100187.75;;;-0.54;100.00
24031;BME280;12240;51.142;22.486;2023-02-11T07:03:55;100254.53;;;-0.04;100.00
24031;BME280;12240;51.142;22.486;2023-02-11T07:06:25;100248.28;;;-0.02;100.00
24031;BME280;12240;51.142;22.486;2023-02-11T07:08:55;100240.19;;;0.05;100.00
24031;BME280;12240;51.142;22.486;2023-02-11T07:11:27;100253.66;;;0.16;100.00
24031;BME280;12240;51.142;22.486;2023-02-11T07:14:01;100254.72;;;0.12;100.00
24031;BME280;12240;51.142;22.486;2023-02-11T07:16:31;100253.72;;;0.14;100.00
24031;BME280;12240;51.142;22.486;2023-02-11T07:19:00;100243.19;;;0.16;100.00
24031;BME280;12240;51.142;22.486;2023-02-11T07:21:28;100255.16;;;0.21;100.00
24031;BME280;12240;51.142;22.486;2023-02-11T07:23:56;100071.81;;;-0.75;100.00
24031;BME280;12240;51.142;22.486;2023-02-11T07:26:25;100177.16;;;-0.11;100.00
24031;BME280;12240;51.142;22.486;2023-02-11T07:28:54;100141.19;;;-0.26;100.00
24031;BME280;12240;51.142;22.486;2023-02-11T07:31:26;100211.19;;;0.09;100.00
24031;BME280;12240;51.142;22.486;2023-02-11T07:33:58;100201.00;;;0.03;100.00
24031;BME280;12240;51.142;22.486;2023-02-11T07:36:29;100203.69;;;0.02;100.00
24031;BME280;12240;51.142;22.486;2023-02-11T07:38:58;100178.31;;;0.02;100.00
24031;BME280;12240;51.142;22.486;2023-02-11T07:41:27;100150.16;;;0.07;100.00
24031;BME280;12240;51.142;22.486;2023-02-11T07:43:55;100202.53;;;0.64;100.00
24031;BME280;12240;51.142;22.486;2023-02-11T07:46:26;100149.34;;;0.44;100.00
24031;BME280;12240;51.142;22.486;2023-02-11T07:48:55;100206.38;;;0.94;100.00
24031;BME280;12240;51.142;22.486;2023-02-11T07:51:30;100196.22;;;1.05;100.00
24031;BME280;12240;51.142;22.486;2023-02-11T07:53:59;100192.19;;;1.34;100.00
24031;BME280;12240;51.142;22.486;2023-02-11T07:56:29;100183.94;;;1.42;100.00
24031;BME280;12240;51.142;22.486;2023-02-11T07:59:01;100165.78;;;1.20;100.00
24031;BME280;12240;51.142;22.486;2023-02-11T08:01:30;100102.53;;;0.73;100.00
24031;BME280;12240;51.142;22.486;2023-02-11T08:04:00;100149.84;;;0.89;100.00
24031;BME280;12240;51.142;22.486;2023-02-11T08:06:32;100119.34;;;0.51;100.00
24031;BME280;12240;51.142;22.486;2023-02-11T08:09:06;100130.88;;;0.65;100.00
24031;BME280;12240;51.142;22.486;2023-02-11T08:11:36;100143.25;;;0.80;100.00
24031;BME280;12240;51.142;22.486;2023-02-11T08:14:05;100127.81;;;0.74;100.00
24031;BME280;12240;51.142;22.486;2023-02-11T08:16:38;100094.13;;;0.67;100.00
24031;BME280;12240;51.142;22.486;2023-02-11T08:19:11;100110.44;;;1.07;100.00
24031;BME280;12240;51.142;22.486;2023-02-11T08:21:40;100126.91;;;1.45;100.00
24031;BME280;12240;51.142;22.486;2023-02-11T08:24:09;100108.28;;;1.33;100.00
24031;BME280;12240;51.142;22.486;2023-02-11T08:26:39;100128.03;;;1.57;100.00
24031;BME280;12240;51.142;22.486;2023-02-11T08:29:12;100114.38;;;1.67;100.00
24031;BME280;12240;51.142;22.486;2023-02-11T08:31:45;100118.91;;;1.81;100.00
24031;BME280;12240;51.142;22.486;2023-02-11T08:34:14;100111.63;;;1.86;100.00
24031;BME280;12240;51.142;22.486;2023-02-11T08:36:47;100101.13;;;1.86;100.00
24031;BME280;12240;51.142;22.486;2023-02-11T08:39:20;100070.59;;;1.68;100.00
24031;BME280;12240;51.142;22.486;2023-02-11T08:41:52;100097.91;;;1.81;100.00
24031;BME280;12240;51.142;22.486;2023-02-11T08:44:21;100045.47;;;1.47;100.00
24031;BME280;12240;51.142;22.486;2023-02-11T08:46:55;100091.00;;;1.63;100.00
24031;BME280;12240;51.142;22.486;2023-02-11T08:49:23;100080.75;;;1.58;100.00
24031;BME280;12240;51.142;22.486;2023-02-11T08:51:52;100058.50;;;1.48;100.00
24031;BME280;12240;51.142;22.486;2023-02-11T08:54:21;100073.53;;;1.62;100.00
24031;BME280;12240;51.142;22.486;2023-02-11T08:56:50;100024.13;;;1.37;100.00
24031;BME280;12240;51.142;22.486;2023-02-11T08:59:19;100074.91;;;1.69;100.00
24031;BME280;12240;51.142;22.486;2023-02-11T09:01:48;100041.56;;;1.71;100.00
24031;BME280;12240;51.142;22.486;2023-02-11T09:04:17;100044.34;;;1.68;100.00
24031;BME280;12240;51.142;22.486;2023-02-11T09:06:45;100014.59;;;1.52;100.00
24031;BME280;12240;51.142;22.486;2023-02-11T09:09:14;100004.28;;;1.64;100.00
24031;BME280;12240;51.142;22.486;2023-02-11T09:11:44;100052.28;;;1.99;100.00
24031;BME280;12240;51.142;22.486;2023-02-11T09:14:21;100037.22;;;2.02;100.00
24031;BME280;12240;51.142;22.486;2023-02-11T09:16:50;100022.31;;;1.87;100.00
24031;BME280;12240;51.142;22.486;2023-02-11T09:19:20;100023.97;;;1.88;100.00
24031;BME280;12240;51.142;22.486;2023-02-11T09:21:50;100032.72;;;1.89;100.00
24031;BME280;12240;51.142;22.486;2023-02-11T09:24:19;99981.84;;;1.59;100.00
24031;BME280;12240;51.142;22.486;2023-02-11T09:26:47;100035.16;;;1.92;100.00
24031;BME280;12240;51.142;22.486;2023-02-11T09:29:17;100026.69;;;1.87;100.00
24031;BME280;12240;51.142;22.486;2023-02-11T09:31:46;100014.47;;;1.86;100.00
24031;BME280;12240;51.142;22.486;2023-02-11T09:34:15;100015.50;;;1.83;100.00
24031;BME280;12240;51.142;22.486;2023-02-11T09:36:43;99948.84;;;1.55;100.00
24031;BME280;12240;51.142;22.486;2023-02-11T09:39:16;100024.38;;;1.81;100.00
24031;BME280;12240;51.142;22.486;2023-02-11T09:44:35;100014.66;;;1.98;100.00
24031;BME280;12240;51.142;22.486;2023-02-11T09:50:21;99937.91;;;1.62;100.00
24031;BME280;12240;51.142;22.486;2023-02-11T09:55:45;99971.19;;;2.08;100.00
24031;BME280;12240;51.142;22.486;2023-02-11T10:01:30;99956.56;;;2.20;100.00
24031;BME280;12240;51.142;22.486;2023-02-11T10:15:44;99886.44;;;1.75;100.00
24031;BME280;12240;51.142;22.486;2023-02-11T10:18:55;99957.97;;;2.25;100.00
24031;BME280;12240;51.142;22.486;2023-02-11T10:24:21;99941.19;;;2.28;100.00
24031;BME280;12240;51.142;22.486;2023-02-11T10:26:51;99897.50;;;2.11;100.00
24031;BME280;12240;51.142;22.486;2023-02-11T10:29:39;99910.75;;;2.24;100.00
24031;BME280;12240;51.142;22.486;2023-02-11T10:32:48;99935.56;;;2.34;100.00
24031;BME280;12240;51.142;22.486;2023-02-11T10:35:22;99922.88;;;2.42;100.00
24031;BME280;12240;51.142;22.486;2023-02-11T10:37:51;99911.41;;;2.43;100.00
24031;BME280;12240;51.142;22.486;2023-02-11T10:40:27;99859.03;;;2.40;100.00
24031;BME280;12240;51.142;22.486;2023-02-11T10:43:03;99898.78;;;2.64;100.00
24031;BME280;12240;51.142;22.486;2023-02-11T10:48:51;99899.31;;;2.41;100.00
24031;BME280;12240;51.142;22.486;2023-02-11T10:51:32;99909.16;;;2.37;100.00
24031;BME280;12240;51.142;22.486;2023-02-11T10:54:10;99899.41;;;2.39;100.00
24031;BME280;12240;51.142;22.486;2023-02-11T10:56:49;99882.88;;;2.37;100.00
24031;BME280;12240;51.142;22.486;2023-02-11T10:59:33;99846.22;;;2.20;100.00
24031;BME280;12240;51.142;22.486;2023-02-11T11:02:29;99838.59;;;2.15;100.00
24031;BME280;12240;51.142;22.486;2023-02-11T11:05:20;99870.75;;;2.34;100.00
24031;BME280;12240;51.142;22.486;2023-02-11T11:07:59;99831.94;;;2.24;100.00
24031;BME280;12240;51.142;22.486;2023-02-11T11:10:45;99894.34;;;2.50;100.00
24031;BME280;12240;51.142;22.486;2023-02-11T11:13:30;99880.91;;;2.55;100.00
24031;BME280;12240;51.142;22.486;2023-02-11T11:16:26;99866.78;;;2.57;100.00
24031;BME280;12240;51.142;22.486;2023-02-11T11:21:51;99869.00;;;2.49;100.00
24031;BME280;12240;51.142;22.486;2023-02-11T11:24:30;99855.97;;;2.48;100.00
24031;BME280;12240;51.142;22.486;2023-02-11T11:27:03;99868.03;;;2.36;100.00
24031;BME280;12240;51.142;22.486;2023-02-11T11:29:41;99792.75;;;1.76;100.00
24031;BME280;12240;51.142;22.486;2023-02-11T11:32:35;99846.16;;;2.06;100.00
24031;BME280;12240;51.142;22.486;2023-02-11T11:35:24;99903.66;;;2.26;100.00
24031;BME280;12240;51.142;22.486;2023-02-11T11:38:02;99892.22;;;2.27;100.00
24031;BME280;12240;51.142;22.486;2023-02-11T11:40:35;99890.31;;;2.15;100.00
24031;BME280;12240;51.142;22.486;2023-02-11T11:46:25;99822.38;;;1.93;100.00
24031;BME280;12240;51.142;22.486;2023-02-11T11:49:25;99869.28;;;2.15;100.00
24031;BME280;12240;51.142;22.486;2023-02-11T11:54:57;99833.78;;;2.08;100.00
24031;BME280;12240;51.142;22.486;2023-02-11T11:57:37;99858.16;;;2.10;100.00
24031;BME280;12240;51.142;22.486;2023-02-11T12:01:01;99841.09;;;2.03;100.00
24031;BME280;12240;51.142;22.486;2023-02-11T12:12:39;99826.38;;;1.85;100.00
24031;BME280;12240;51.142;22.486;2023-02-11T12:33:14;99827.50;;;1.50;100.00
24031;BME280;12240;51.142;22.486;2023-02-11T12:48:29;99871.56;;;1.28;100.00
24031;BME280;12240;51.142;22.486;2023-02-11T12:57:05;99865.81;;;1.21;100.00
24031;BME280;12240;51.142;22.486;2023-02-11T13:05:56;99889.69;;;1.16;100.00
24031;BME280;12240;51.142;22.486;2023-02-11T13:08:36;99904.47;;;1.17;100.00
24031;BME280;12240;51.142;22.486;2023-02-11T13:11:16;99892.59;;;1.10;100.00
24031;BME280;12240;51.142;22.486;2023-02-11T13:13:49;99897.09;;;1.08;100.00
24031;BME280;12240;51.142;22.486;2023-02-11T13:22:22;99897.09;;;1.08;100.00
24031;BME280;12240;51.142;22.486;2023-02-11T13:27:59;99856.38;;;0.86;100.00
24031;BME280;12240;51.142;22.486;2023-02-11T13:30:33;99842.72;;;0.79;100.00
24031;BME280;12240;51.142;22.486;2023-02-11T13:36:10;99883.06;;;1.09;100.00
24031;BME280;12240;51.142;22.486;2023-02-11T13:38:38;99840.00;;;0.81;100.00
24031;BME280;12240;51.142;22.486;2023-02-11T13:41:31;99843.94;;;0.89;100.00
24031;BME280;12240;51.142;22.486;2023-02-11T13:47:05;99863.44;;;1.16;100.00
24031;BME280;12240;51.142;22.486;2023-02-11T13:49:38;99864.28;;;1.17;100.00
24031;BME280;12240;51.142;22.486;2023-02-11T13:52:30;99867.59;;;1.20;100.00
24031;BME280;12240;51.142;22.486;2023-02-11T13:57:41;99842.00;;;1.08;100.00
24031;BME280;12240;51.142;22.486;2023-02-11T14:00:49;99870.88;;;1.24;100.00
24031;BME280;12240;51.142;22.486;2023-02-11T14:03:37;99866.25;;;1.29;100.00
24031;BME280;12240;51.142;22.486;2023-02-11T14:06:28;99846.53;;;1.22;100.00
24031;BME280;12240;51.142;22.486;2023-02-11T14:15:23;99882.34;;;1.39;100.00
24031;BME280;12240;51.142;22.486;2023-02-11T14:17:52;99818.59;;;1.05;100.00
24031;BME280;12240;51.142;22.486;2023-02-11T14:20:48;99873.44;;;1.41;100.00
24031;BME280;12240;51.142;22.486;2023-02-11T14:23:23;99818.09;;;1.14;100.00
24031;BME280;12240;51.142;22.486;2023-02-11T14:26:06;99865.66;;;1.40;100.00
24031;BME280;12240;51.142;22.486;2023-02-11T14:28:44;99871.50;;;1.45;100.00
24031;BME280;12240;51.142;22.486;2023-02-11T14:31:22;99866.84;;;1.50;100.00
24031;BME280;12240;51.142;22.486;2023-02-11T14:37:42;99859.91;;;1.49;100.00
24031;BME280;12240;51.142;22.486;2023-02-11T14:40:32;99852.47;;;1.57;100.00
24031;BME280;12240;51.142;22.486;2023-02-11T14:43:17;99860.19;;;1.60;100.00
24031;BME280;12240;51.142;22.486;2023-02-11T14:45:52;99829.78;;;1.40;100.00
24031;BME280;12240;51.142;22.486;2023-02-11T14:48:33;99801.69;;;1.27;100.00
24031;BME280;12240;51.142;22.486;2023-02-11T14:51:12;99786.63;;;1.14;100.00
24031;BME280;12240;51.142;22.486;2023-02-11T14:53:48;99851.06;;;1.51;100.00
24031;BME280;12240;51.142;22.486;2023-02-11T14:56:24;99861.47;;;1.53;100.00
24031;BME280;12240;51.142;22.486;2023-02-11T14:58:54;99843.91;;;1.38;100.00
24031;BME280;12240;51.142;22.486;2023-02-11T15:01:38;99883.91;;;1.58;100.00
24031;BME280;12240;51.142;22.486;2023-02-11T15:04:28;99879.47;;;1.59;100.00
24031;BME280;12240;51.142;22.486;2023-02-11T15:07:03;99851.78;;;1.53;100.00
24031;BME280;12240;51.142;22.486;2023-02-11T15:12:00;99859.25;;;1.61;100.00
24031;BME280;12240;51.142;22.486;2023-02-11T15:14:33;99872.63;;;1.72;100.00
24031;BME280;12240;51.142;22.486;2023-02-11T15:17:06;99849.94;;;1.55;100.00
24031;BME280;12240;51.142;22.486;2023-02-11T15:19:41;99822.00;;;1.39;100.00
24031;BME280;12240;51.142;22.486;2023-02-11T15:22:25;99820.75;;;1.46;100.00
24031;BME280;12240;51.142;22.486;2023-02-11T15:27:46;99829.53;;;1.45;100.00
24031;BME280;12240;51.142;22.486;2023-02-11T15:32:55;99874.50;;;1.70;100.00
24031;BME280;12240;51.142;22.486;2023-02-11T15:35:33;99881.50;;;1.69;100.00
24031;BME280;12240;51.142;22.486;2023-02-11T15:38:04;99890.34;;;1.68;100.00
24031;BME280;12240;51.142;22.486;2023-02-11T15:40:38;99847.66;;;1.49;100.00
24031;BME280;12240;51.142;22.486;2023-02-11T15:43:08;99838.25;;;1.45;100.00
24031;BME280;12240;51.142;22.486;2023-02-11T15:46:01;99880.66;;;1.69;100.00
24031;BME280;12240;51.142;22.486;2023-02-11T15:48:37;99894.91;;;1.65;100.00
24031;BME280;12240;51.142;22.486;2023-02-11T15:51:39;99880.06;;;1.64;100.00
24031;BME280;12240;51.142;22.486;2023-02-11T15:54:21;99895.72;;;1.65;100.00